Time;durP1;ratioP1;P1;durP2;ratioP2;P2;SDS_P1;SDS_P2;PMS_P1;PMS_P2;Temp;Humidity;BMP_temperature;BMP_pressure;BME280_temperature;BME280_humidity;BME280_pressure;Samples;Min_cycle;Max_cycle;Signal;HPM_P1;HPM_P2
2022/02/05 00:04:09;;;;;;;37.85;20.88;;;;;;;1.33;66.95;100229.44;1437419;90;21524;-85
2022/02/05 00:06:37;;;;;;;35.40;20.23;;;;;;;1.38;66.98;100236.13;1428251;91;21472;-85
2022/02/05 00:11:59;;;;;;;36.17;19.97;;;;;;;1.46;67.00;100233.90;1411402;91;21808;-85
2022/02/05 00:14:34;;;;;;;35.27;20.23;;;;;;;1.51;67.00;100233.98;1410211;92;21805;-84
2022/02/05 00:39:20;;;;;;;35.67;20.40;;;;;;;1.83;67.20;100247.28;1411543;92;21615;-84
2022/02/05 00:41:33;;;;;;;32.90;20.03;;;;;;;1.84;67.05;100242.42;1408308;91;22632;-84
2022/02/05 00:44:00;;;;;;;42.63;22.90;;;;;;;1.86;66.93;100240.09;1413118;91;22987;-84
2022/02/05 00:46:33;;;;;;;40.23;21.40;;;;;;;1.85;67.15;100240.20;1403596;92;21872;-85
2022/02/05 00:48:57;;;;;;;;;;;;;;;1.83;67.18;100232.92;1414114;92;21751;-84
2022/02/05 00:51:39;;;;;;;33.20;20.23;;;;;;;1.86;67.22;100237.47;1412494;92;20287;-84
2022/02/05 00:54:11;;;;;;;33.77;20.07;;;;;;;1.90;67.05;100238.98;1408156;92;21866;-84
2022/02/05 00:59:20;;;;;;;37.13;19.57;;;;;;;1.97;67.13;100238.94;1410504;92;21670;-84
2022/02/05 01:01:49;;;;;;;30.77;19.07;;;;;;;1.98;67.02;100224.11;1413735;92;21690;-84
2022/02/05 01:04:16;;;;;;;34.17;21.17;;;;;;;1.96;67.39;100218.17;1418065;92;21487;-85
2022/02/05 01:06:45;;;;;;;34.47;20.37;;;;;;;1.97;67.10;100207.63;1406983;92;21693;-85
2022/02/05 01:09:20;;;;;;;33.57;20.07;;;;;;;1.99;67.30;100201.02;1424551;90;21675;-84
2022/02/05 01:11:43;;;;;;;34.00;20.15;;;;;;;1.96;67.45;100199.91;1440223;90;22719;-84
2022/02/05 01:14:13;;;;;;;30.83;17.83;;;;;;;1.93;67.40;100217.90;1439457;90;21405;-84
2022/02/05 01:19:28;;;;;;;35.50;20.47;;;;;;;1.96;67.42;100221.62;1439829;89;21546;-84
2022/02/05 01:21:49;;;;;;;35.40;18.53;;;;;;;1.99;67.35;100210.98;1437184;89;21747;-84
2022/02/05 01:24:13;;;;;;;36.13;21.60;;;;;;;2.03;67.27;100213.75;1460700;89;21797;-86
2022/02/05 01:26:50;;;;;;;35.73;19.20;;;;;;;2.07;67.30;100209.16;1460219;89;21648;-86
2022/02/05 01:31:50;;;;;;;42.70;22.43;;;;;;;2.10;67.14;100211.60;1461280;89;21776;-85
2022/02/05 01:48:54;;;;;;;32.40;19.27;;;;;;;2.13;67.17;100214.02;1396337;89;21807;-86
2022/02/05 01:50:17;;;;;;;33.73;19.53;;;;;;;2.17;67.22;100225.92;1395023;93;21732;-85
2022/02/05 01:52:33;;;;;;;31.87;17.53;;;;;;;2.19;67.18;100229.28;1400569;93;21832;-85
2022/02/05 01:55:18;;;;;;;28.13;16.13;;;;;;;2.17;67.20;100233.76;1394104;93;23840;-86
2022/02/05 01:57:49;;;;;;;31.90;17.63;;;;;;;2.15;67.32;100230.40;1390526;93;21762;-86
2022/02/05 02:05:34;;;;;;;31.50;17.17;;;;;;;2.18;67.46;100214.53;1394717;93;21538;-85
2022/02/05 02:11:08;;;;;;;27.47;15.97;;;;;;;2.18;67.57;100221.06;1387668;93;21752;-86
2022/02/05 02:13:46;;;;;;;29.80;16.80;;;;;;;2.19;67.52;100226.67;1380065;94;21834;-86
2022/02/05 02:16:05;;;;;;;31.30;18.17;;;;;;;2.21;67.70;100220.86;1376866;93;23059;-87
2022/02/05 02:21:17;;;;;;;27.53;16.77;;;;;;;2.23;67.74;100221.61;1385884;94;21609;-85
2022/02/05 02:26:37;;;;;;;38.30;20.60;;;;;;;2.25;67.77;100219.74;1437562;90;21898;-86
2022/02/05 02:29:02;;;;;;;30.13;17.00;;;;;;;2.28;67.88;100213.96;1424302;91;21737;-85
2022/02/05 02:31:25;;;;;;;32.27;17.73;;;;;;;2.31;67.88;100199.39;1435122;91;21741;-85
2022/02/05 02:33:56;;;;;;;33.13;18.33;;;;;;;2.32;67.87;100204.50;1437827;90;21787;-86
2022/02/05 02:36:36;;;;;;;28.87;17.07;;;;;;;2.30;67.92;100199.00;1419121;91;21718;-85
2022/02/05 02:39:07;;;;;;;25.47;14.97;;;;;;;2.28;67.92;100210.05;1424230;91;21668;-85
2022/02/05 02:41:36;;;;;;;30.83;15.63;;;;;;;2.22;67.93;100213.41;1431381;91;21695;-84
2022/02/05 02:43:58;;;;;;;24.07;15.77;;;;;;;2.19;68.14;100220.14;1430854;91;22661;-85
2022/02/05 02:46:25;;;;;;;24.53;14.40;;;;;;;2.10;68.40;100207.69;1433954;90;22860;-85
2022/02/05 02:48:52;;;;;;;25.50;15.17;;;;;;;2.04;68.38;100198.92;1422932;91;21917;-85
2022/02/05 02:57:02;;;;;;;25.13;14.93;;;;;;;2.02;68.65;100195.59;1432336;90;21504;-85
2022/02/05 02:59:47;;;;;;;;;;;;;;;;;;;;;
2022/02/05 03:02:07;;;;;;;22.90;14.43;;;;;;;1.96;68.85;100189.47;1396828;93;21853;-85
2022/02/05 03:04:27;;;;;;;25.77;15.53;;;;;;;1.96;69.05;100178.55;1398133;93;21690;-85
2022/02/05 03:06:54;;;;;;;26.77;14.90;;;;;;;2.00;68.98;100182.63;1398045;93;21674;-85
2022/02/05 03:09:23;;;;;;;25.17;15.23;;;;;;;2.04;68.97;100180.64;1397271;92;21959;-85
2022/02/05 03:11:51;;;;;;;31.63;16.43;;;;;;;2.04;69.19;100172.81;1407764;92;21730;-86
2022/02/05 03:14:18;;;;;;;28.93;17.03;;;;;;;2.03;69.23;100178.51;1409369;92;22621;-86
2022/02/05 03:16:50;;;;;;;26.87;16.30;;;;;;;2.02;69.24;100182.54;1406353;92;21722;-86
2022/02/05 03:19:15;;;;;;;30.87;16.20;;;;;;;2.05;69.22;100182.81;1404680;93;22678;-86
2022/02/05 03:21:44;;;;;;;26.80;14.73;;;;;;;2.02;69.25;100183.84;1406399;93;23153;-84
2022/02/05 03:24:12;;;;;;;27.90;15.77;;;;;;;1.98;69.39;100177.13;1407560;93;21863;-85
2022/02/05 03:26:40;;;;;;;21.97;13.80;;;;;;;1.96;69.52;100185.55;1408200;93;21804;-86
2022/02/05 03:29:10;;;;;;;39.43;16.63;;;;;;;1.96;69.69;100180.33;1404727;93;21734;-86
2022/02/05 03:31:37;;;;;;;23.63;14.13;;;;;;;1.96;69.53;100184.25;1413431;92;21779;-86
2022/02/05 03:34:06;;;;;;;27.50;15.63;;;;;;;1.98;69.53;100178.44;1410090;92;21685;-86
2022/02/05 03:36:37;;;;;;;23.97;14.87;;;;;;;2.03;69.67;100180.28;1404210;92;21588;-87
2022/02/05 03:39:04;;;;;;;22.00;13.83;;;;;;;2.03;69.68;100178.98;1409215;93;21993;-86
2022/02/05 03:41:32;;;;;;;24.33;14.30;;;;;;;2.00;69.74;100183.09;1407167;93;21809;-87
2022/02/05 03:44:00;;;;;;;24.73;13.87;;;;;;;1.97;69.91;100176.30;1408547;93;23030;-87
2022/02/05 03:46:29;;;;;;;24.37;14.20;;;;;;;1.99;69.84;100173.60;1428198;90;22773;-86
2022/02/05 03:48:57;;;;;;;23.30;13.63;;;;;;;2.01;69.96;100172.58;1453495;90;21582;-86
2022/02/05 03:51:24;;;;;;;21.37;12.60;;;;;;;2.05;69.94;100171.89;1455481;89;21645;-86
2022/02/05 03:53:53;;;;;;;26.87;14.47;;;;;;;2.03;69.92;100182.90;1456394;89;21641;-87
2022/02/05 03:56:20;;;;;;;23.10;14.17;;;;;;;1.99;70.19;100176.22;1438951;89;23621;-85
2022/02/05 03:58:47;;;;;;;25.63;14.33;;;;;;;1.96;70.47;100172.50;1456238;89;22425;-85
2022/02/05 04:01:15;;;;;;;25.07;13.67;;;;;;;1.93;70.97;100167.00;1452300;89;22584;-85
2022/02/05 04:03:42;;;;;;;27.73;14.23;;;;;;;1.91;70.81;100164.95;1458922;89;22690;-84
2022/02/05 04:06:09;;;;;;;24.13;14.23;;;;;;;1.88;70.85;100157.80;1461341;89;21808;-84
2022/02/05 04:08:36;;;;;;;23.27;13.13;;;;;;;1.88;70.99;100163.02;1435576;89;21820;-84
2022/02/05 04:11:08;;;;;;;21.57;13.40;;;;;;;1.85;71.17;100159.30;1438398;89;21607;-85
2022/02/05 04:16:24;;;;;;;21.30;12.87;;;;;;;1.79;71.74;100160.05;1434743;90;22532;-85
2022/02/05 04:18:59;;;;;;;25.90;13.77;;;;;;;1.78;71.68;100170.13;1432496;90;21863;-85
2022/02/05 04:21:29;;;;;;;24.83;13.00;;;;;;;1.78;71.93;100167.52;1434877;90;21717;-85
2022/02/05 04:23:58;;;;;;;22.77;13.43;;;;;;;1.80;72.19;100174.77;1441346;91;22613;-86
2022/02/05 04:26:25;;;;;;;21.93;12.47;;;;;;;1.79;72.09;100178.80;1429042;90;21654;-86
2022/02/05 04:28:52;;;;;;;19.53;11.93;;;;;;;1.77;72.27;100165.83;1439893;91;22600;-87
2022/02/05 04:31:19;;;;;;;21.60;13.47;;;;;;;1.79;72.10;100171.80;1433970;90;21578;-87
2022/02/05 04:33:46;;;;;;;32.97;13.73;;;;;;;1.78;72.23;100184.48;1422863;91;21575;-86
2022/02/05 04:36:16;;;;;;;18.90;12.37;;;;;;;1.78;72.45;100182.31;1425197;90;22533;-85
2022/02/05 04:38:46;;;;;;;25.10;13.93;;;;;;;1.83;72.20;100183.34;1427943;90;21778;-85
2022/02/05 04:41:21;;;;;;;20.70;11.60;;;;;;;1.85;72.18;100181.48;1436085;90;21744;-86
2022/02/05 04:43:58;;;;;;;24.63;13.87;;;;;;;1.91;72.00;100190.22;1436315;90;21657;-86
2022/02/05 04:46:44;;;;;;;25.23;14.40;;;;;;;1.98;71.77;100201.92;1427789;91;23205;-85
2022/02/05 04:54:16;;;;;;;23.53;13.10;;;;;;;2.09;71.89;100196.86;1417205;90;21966;-86
2022/02/05 05:09:49;;;;;;;24.80;14.43;;;;;;;2.04;72.47;100223.72;1409954;91;21528;-86
2022/02/05 05:19:47;;;;;;;23.87;13.77;;;;;;;2.17;72.34;100222.48;1407695;92;21518;-85
2022/02/05 05:22:15;;;;;;;19.70;12.40;;;;;;;2.22;72.23;100222.55;1411067;91;21793;-85
2022/02/05 05:24:43;;;;;;;27.20;15.20;;;;;;;2.28;72.09;100221.80;1407769;91;22162;-85
2022/02/05 05:27:10;;;;;;;27.37;15.50;;;;;;;2.34;71.97;100225.31;1414684;92;21563;-84
2022/02/05 05:29:38;;;;;;;26.80;16.47;;;;;;;2.40;71.87;100228.35;1410004;92;21595;-84
2022/02/05 05:32:06;;;;;;;33.67;17.57;;;;;;;2.45;71.82;100230.67;1417169;92;21495;-84
2022/02/05 05:34:33;;;;;;;24.47;14.03;;;;;;;2.45;71.82;100237.20;1415518;92;21538;-84
2022/02/05 05:37:01;;;;;;;32.17;16.07;;;;;;;2.46;71.61;100234.47;1407410;91;21703;-84
2022/02/05 05:39:32;;;;;;;27.30;15.50;;;;;;;2.52;71.59;100240.24;1432170;90;21655;-84
2022/02/05 05:42:00;;;;;;;32.00;16.75;;;;;;;2.55;71.48;100240.87;1433285;90;22270;-84
2022/02/05 05:47:20;;;;;;;32.53;18.27;;;;;;;2.49;71.49;100236.89;1430715;90;21807;-86
2022/02/05 05:52:19;;;;;;;33.70;19.23;;;;;;;2.53;71.45;100232.28;1432303;90;21726;-87
2022/02/05 05:54:46;;;;;;;35.43;18.43;;;;;;;2.57;71.41;100229.03;1426421;91;21718;-86
2022/02/05 05:57:14;;;;;;;34.43;18.60;;;;;;;2.59;71.55;100220.59;1424271;91;21677;-86
2022/02/05 05:59:43;;;;;;;31.10;17.90;;;;;;;2.60;71.41;100227.52;1400558;91;21615;-87
2022/02/05 06:02:10;;;;;;;30.77;17.43;;;;;;;2.60;71.50;100231.44;1409221;92;21580;-86
2022/02/05 06:04:38;;;;;;;35.60;20.03;;;;;;;2.62;71.52;100225.17;1418468;92;21777;-87
2022/02/05 06:07:06;;;;;;;28.67;16.70;;;;;;;2.63;71.59;100226.84;1416849;91;21692;-87
2022/02/05 06:09:40;;;;;;;34.17;20.23;;;;;;;2.62;71.49;100240.02;1403668;92;21646;-86
2022/02/05 06:12:07;;;;;;;169.03;101.37;;;;;;;2.52;71.87;100242.38;1412989;92;21767;-86
2022/02/05 06:14:34;;;;;;;155.57;95.57;;;;;;;2.42;71.82;100246.55;1413005;92;21667;-85
2022/02/05 06:17:07;;;;;;;166.43;89.83;;;;;;;2.40;71.72;100245.80;1416095;91;21978;-86
2022/02/05 06:19:31;;;;;;;166.00;92.07;;;;;;;2.37;72.31;100242.09;1423861;90;21818;-87
2022/02/05 06:21:59;;;;;;;156.30;85.20;;;;;;;2.36;72.37;100243.00;1419805;92;21572;-87
2022/02/05 06:24:26;;;;;;;158.23;79.50;;;;;;;2.36;72.14;100243.87;1435207;91;21576;-87
2022/02/05 06:26:53;;;;;;;42.03;24.37;;;;;;;2.37;71.98;100232.94;1401792;91;21599;-87
2022/02/05 06:29:20;;;;;;;38.20;18.40;;;;;;;2.35;71.86;100224.36;1414048;92;21583;-87
2022/02/05 06:31:47;;;;;;;54.07;18.33;;;;;;;2.29;71.88;100226.91;1413381;92;21558;-88
2022/02/05 06:34:14;;;;;;;49.00;17.37;;;;;;;2.20;71.90;100234.86;1409608;91;21618;-88
2022/02/05 06:36:41;;;;;;;53.73;18.07;;;;;;;2.17;71.94;100230.31;1435154;91;21592;-88
2022/02/05 06:39:08;;;;;;;28.40;17.23;;;;;;;2.15;71.95;100235.62;1407524;92;21613;-88
2022/02/05 06:41:35;;;;;;;27.07;16.00;;;;;;;2.10;71.85;100240.33;1424683;91;22605;-87
2022/02/05 06:44:02;;;;;;;33.00;19.63;;;;;;;2.11;72.08;100248.52;1416113;91;21758;-87
2022/02/05 06:46:29;;;;;;;27.13;16.40;;;;;;;2.12;72.20;100239.73;1409015;92;21730;-87
2022/02/05 06:48:57;;;;;;;29.20;17.40;;;;;;;2.12;72.20;100249.34;1410483;90;21690;-87
2022/02/05 06:51:24;;;;;;;31.10;18.93;;;;;;;2.12;72.19;100254.09;1412013;92;21631;-87
2022/02/05 06:53:51;;;;;;;40.73;22.87;;;;;;;2.20;72.42;100256.23;1417191;92;21610;-87
2022/02/05 06:56:18;;;;;;;33.33;20.40;;;;;;;2.29;72.45;100256.94;1418927;91;21595;-87
2022/02/05 06:58:46;;;;;;;41.53;22.53;;;;;;;2.37;72.34;100261.67;1428240;91;21563;-87
2022/02/05 07:01:13;;;;;;;41.90;20.40;;;;;;;2.44;72.21;100264.24;1420444;90;21789;-86
2022/02/05 07:03:40;;;;;;;37.40;19.33;;;;;;;2.48;72.06;100260.52;1397602;92;22675;-85
2022/02/05 07:06:07;;;;;;;27.17;16.30;;;;;;;2.54;71.91;100271.87;1389428;92;22950;-86
2022/02/05 07:08:36;;;;;;;30.07;15.97;;;;;;;2.61;71.83;100275.73;1394430;92;21636;-86
2022/02/05 07:11:04;;;;;;;28.63;16.57;;;;;;;2.59;71.59;100281.55;1394778;92;21835;-86
2022/02/05 07:13:31;;;;;;;24.73;14.67;;;;;;;2.60;71.37;100277.99;1394062;93;21588;-86
2022/02/05 07:16:06;;;;;;;28.17;14.20;;;;;;;2.56;71.57;100277.84;1377466;93;21683;-86
2022/02/05 07:21:04;;;;;;;29.23;16.83;;;;;;;2.64;71.35;100277.31;1399963;92;21842;-86
2022/02/05 07:24:23;;;;;;;27.23;15.73;;;;;;;2.63;71.27;100278.27;1377832;93;21883;-86
2022/02/05 07:31:23;;;;;;;24.30;15.17;;;;;;;2.87;71.24;100266.65;1420007;92;21562;-84
2022/02/05 07:33:50;;;;;;;25.10;15.40;;;;;;;2.88;71.11;100260.03;1418353;92;21913;-84
2022/02/05 07:36:18;;;;;;;26.60;16.23;;;;;;;2.89;71.10;100258.24;1418085;92;21725;-83
2022/02/05 07:38:47;;;;;;;31.57;15.90;;;;;;;2.88;71.08;100263.11;1421879;92;21771;-84
2022/02/05 07:41:14;;;;;;;24.77;15.43;;;;;;;2.95;71.31;100269.59;1420093;92;21741;-84
2022/02/05 07:43:42;;;;;;;27.63;17.53;;;;;;;3.00;71.08;100272.75;1417392;91;23866;-84
2022/02/05 07:46:11;;;;;;;29.90;15.00;;;;;;;3.07;71.06;100279.22;1420491;92;21580;-84
2022/02/05 07:48:40;;;;;;;29.77;17.10;;;;;;;3.10;70.96;100285.55;1419802;92;21783;-84
2022/02/05 07:51:08;;;;;;;33.40;17.20;;;;;;;3.13;70.62;100285.81;1415124;92;21793;-84
2022/02/05 07:53:37;;;;;;;25.03;14.00;;;;;;;3.08;70.81;100286.14;1421149;92;21671;-87
2022/02/05 07:56:05;;;;;;;26.37;16.50;;;;;;;3.09;71.05;100283.05;1425933;92;21902;-86
2022/02/05 07:58:34;;;;;;;31.70;18.00;;;;;;;3.03;71.04;100282.99;1417418;92;21651;-87
2022/02/05 08:01:04;;;;;;;26.23;15.67;;;;;;;2.94;71.23;100287.06;1416932;92;21745;-88
2022/02/05 08:03:31;;;;;;;31.97;17.87;;;;;;;2.98;71.82;100282.45;1406953;92;21835;-87
2022/02/05 08:06:00;;;;;;;30.27;18.67;;;;;;;3.04;71.65;100274.20;1418619;92;22563;-87
2022/02/05 08:08:31;;;;;;;29.20;18.03;;;;;;;3.10;71.77;100272.48;1416923;92;21854;-88
2022/02/05 08:11:01;;;;;;;29.93;18.07;;;;;;;3.18;71.68;100267.22;1397768;92;22698;-88
2022/02/05 08:13:28;;;;;;;33.67;19.37;;;;;;;3.22;71.68;100267.36;1412284;90;21890;-88
2022/02/05 08:16:29;;;;;;;36.90;21.47;;;;;;;3.33;71.74;100270.91;1408602;92;21912;-89
2022/02/05 08:18:51;;;;;;;30.80;19.53;;;;;;;3.44;71.66;100267.56;1409173;92;21889;-88
2022/02/05 08:21:18;;;;;;;33.10;19.43;;;;;;;3.56;71.29;100264.57;1401660;92;21780;-88
2022/02/05 08:23:45;;;;;;;32.83;17.77;;;;;;;3.55;71.37;100252.44;1403292;92;22163;-88
2022/02/05 08:26:15;;;;;;;34.47;17.40;;;;;;;3.72;71.29;100235.56;1413506;92;21908;-90
2022/02/05 08:28:43;;;;;;;33.53;19.90;;;;;;;3.72;70.71;100202.84;1419824;91;22364;-83
2022/02/05 08:31:11;;;;;;;34.23;20.40;;;;;;;3.92;70.25;100184.39;1436917;90;21935;-83
2022/02/05 08:33:42;;;;;;;32.20;17.50;;;;;;;3.92;70.25;100184.39;1430540;90;23220;-84
2022/02/05 08:36:07;;;;;;;31.43;17.33;;;;;;;4.05;69.93;100162.42;1432401;91;22382;-85
2022/02/05 08:38:34;;;;;;;35.87;17.83;;;;;;;4.14;69.55;100163.53;1435881;90;22206;-83
2022/02/05 08:41:01;;;;;;;33.03;18.73;;;;;;;4.30;69.51;100175.03;1433804;90;22222;-81
2022/02/05 08:43:30;;;;;;;31.93;19.13;;;;;;;4.40;68.92;100193.07;1429221;90;22141;-86
2022/02/05 08:45:58;;;;;;;29.70;18.30;;;;;;;4.44;68.54;100233.81;1424447;90;22081;-85
2022/02/05 08:48:26;;;;;;;42.27;20.43;;;;;;;4.57;68.32;100214.55;1437520;90;22279;-89
2022/02/05 08:50:53;;;;;;;38.77;20.53;;;;;;;4.71;67.48;100237.95;1433320;90;22078;-85
2022/02/05 08:53:22;;;;;;;31.37;18.83;;;;;;;4.83;67.83;100245.37;1431614;90;22078;-86
2022/02/05 08:55:52;;;;;;;38.50;22.03;;;;;;;4.88;67.41;100261.12;1433818;91;22244;-86
2022/02/05 08:58:20;;;;;;;30.80;18.90;;;;;;;4.88;67.41;100261.12;1432883;91;22351;-87
2022/02/05 09:00:49;;;;;;;27.87;19.00;;;;;;;4.87;66.56;100226.67;1436642;91;22226;-86
2022/02/05 09:03:30;;;;;;;36.93;19.17;;;;;;;4.88;66.33;100245.38;1416430;91;21407;-85
2022/02/05 09:05:51;;;;;;;30.87;18.23;;;;;;;4.82;66.47;100240.60;1414019;92;21533;-86
2022/02/05 09:08:30;;;;;;;29.67;16.77;;;;;;;4.82;66.47;100240.60;1402401;92;21415;-84
2022/02/05 09:16:09;;;;;;;37.73;22.03;;;;;;;4.50;67.06;100259.56;1394704;94;21559;-86
2022/02/05 09:18:38;;;;;;;37.87;19.70;;;;;;;4.47;67.51;100255.86;1393216;93;23099;-86
2022/02/05 09:21:05;;;;;;;38.73;21.83;;;;;;;4.58;67.50;100272.59;1382625;93;22988;-86
2022/02/05 09:23:35;;;;;;;28.67;17.13;;;;;;;4.66;67.59;100279.39;1392936;93;22857;-86
2022/02/05 09:26:18;;;;;;;29.80;18.33;;;;;;;4.89;67.40;100282.03;1414440;90;22150;-85
2022/02/05 09:28:48;;;;;;;36.37;19.90;;;;;;;5.01;66.78;100282.03;1414193;90;22112;-86
2022/02/05 09:31:26;;;;;;;29.80;18.50;;;;;;;5.09;66.90;100287.55;1422111;90;21370;-86
2022/02/05 09:33:52;;;;;;;31.33;19.60;;;;;;;5.24;67.03;100292.09;1417295;90;22498;-86
2022/02/05 09:36:21;;;;;;;37.20;20.33;;;;;;;5.45;66.38;100282.22;1437690;90;21381;-86
2022/02/05 09:38:48;;;;;;;28.80;17.60;;;;;;;5.84;65.91;100287.00;1419656;90;21479;-85
2022/02/05 09:41:29;;;;;;;31.80;18.63;;;;;;;6.58;63.69;100285.06;1416345;90;21628;-85
2022/02/05 09:43:56;;;;;;;29.32;18.40;;;;;;;7.43;62.85;100298.61;1384796;90;22622;-86
2022/02/05 09:46:41;;;;;;;32.23;18.23;;;;;;;8.07;60.37;100305.39;1449057;89;21274;-85
2022/02/05 09:49:09;;;;;;;24.87;16.53;;;;;;;8.61;59.38;100317.81;1433437;90;21475;-86
2022/02/05 09:51:45;;;;;;;25.87;18.20;;;;;;;9.08;57.54;100303.42;1426057;90;21334;-85
2022/02/05 09:54:08;;;;;;;29.70;18.73;;;;;;;8.91;57.92;100301.00;1427366;90;21399;-85
2022/02/05 09:56:41;;;;;;;25.33;17.37;;;;;;;8.51;59.03;100298.83;1430105;89;21377;-86
2022/02/05 09:59:10;;;;;;;37.07;19.13;;;;;;;9.13;56.68;100288.83;1430322;89;21339;-85
2022/02/05 10:01:38;;;;;;;26.70;17.50;;;;;;;9.70;56.26;100283.53;1427562;90;21392;-86
2022/02/05 10:04:10;;;;;;;24.77;16.37;;;;;;;10.15;55.46;100280.08;1418189;91;22074;-86
2022/02/05 10:06:49;;;;;;;25.57;17.57;;;;;;;10.43;53.69;100279.59;1423302;91;21629;-87
2022/02/05 10:09:18;;;;;;;27.30;17.53;;;;;;;10.81;53.79;100269.67;1416776;91;21585;-88
2022/02/05 10:11:53;;;;;;;31.70;19.60;;;;;;;11.26;53.26;100278.79;1419716;92;21407;-87
2022/02/05 10:14:24;;;;;;;27.30;18.80;;;;;;;11.48;52.40;100276.12;1423901;90;22623;-86
2022/02/05 10:16:58;;;;;;;26.37;17.63;;;;;;;11.77;52.42;100276.73;1423158;89;22301;-86
2022/02/05 10:19:47;;;;;;;28.60;18.17;;;;;;;12.05;51.29;100282.19;1416923;92;21562;-87
2022/02/05 10:22:15;;;;;;;29.50;17.13;;;;;;;12.25;50.82;100280.09;1416782;92;22454;-87
2022/02/05 10:25:01;;;;;;;22.90;14.83;;;;;;;11.77;49.54;100287.34;1415444;92;21568;-88
2022/02/05 10:27:42;;;;;;;25.83;14.13;;;;;;;11.37;48.82;100296.75;1415514;91;21398;-87
2022/02/05 10:30:27;;;;;;;33.67;17.03;;;;;;;11.08;50.50;100292.58;1411887;91;22537;-87
2022/02/05 10:33:10;;;;;;;28.23;18.23;;;;;;;10.71;49.23;100296.23;1420619;92;22523;-87
2022/02/05 10:36:06;;;;;;;25.67;17.40;;;;;;;11.41;51.71;100311.34;1420378;91;21479;-87
2022/02/05 10:44:17;;;;;;;23.93;15.53;;;;;;;9.18;53.10;100331.48;1478463;90;21458;-86
2022/02/05 10:46:44;;;;;;;22.77;15.10;;;;;;;8.37;55.03;100351.94;1371342;92;21318;-87
2022/02/05 10:49:14;;;;;;;24.80;16.17;;;;;;;7.67;57.46;100370.26;1359366;92;22702;-87
2022/02/05 10:51:46;;;;;;;28.20;17.02;;;;;;;7.30;58.82;100378.27;1416039;92;21531;-87
2022/02/05 10:54:32;;;;;;;25.60;15.17;;;;;;;7.01;58.68;100382.34;1415845;92;21427;-85
2022/02/05 10:57:14;;;;;;;20.93;12.83;;;;;;;6.75;60.16;100384.46;1409801;92;23350;-86
2022/02/05 11:05:41;;;;;;;23.03;14.60;;;;;;;6.07;64.19;100401.27;1433926;90;21516;-85
2022/02/05 11:08:06;;;;;;;28.40;16.47;;;;;;;5.87;64.78;100413.31;1418760;92;21489;-87
2022/02/05 11:18:57;;;;;;;24.80;17.67;;;;;;;5.23;68.21;100430.79;1444175;90;21586;-86
2022/02/05 11:21:30;;;;;;;23.57;14.20;;;;;;;5.01;70.13;100438.10;1485068;89;21552;-87
2022/02/05 11:24:06;;;;;;;32.40;21.53;;;;;;;4.94;70.97;100446.04;1442717;89;21493;-86
2022/02/05 11:26:34;;;;;;;29.83;18.47;;;;;;;4.90;70.69;100455.92;1443539;89;22401;-87
2022/02/05 11:29:04;;;;;;;27.10;18.73;;;;;;;4.94;71.28;100471.78;1449251;89;21603;-90
2022/02/05 11:31:38;;;;;;;26.75;17.85;;;;;;;4.85;71.96;100476.39;1436731;90;23429;-87
2022/02/05 11:34:28;;;;;;;26.27;17.43;;;;;;;4.85;72.42;100479.01;1447464;89;22994;-87
2022/02/05 11:37:09;;;;;;;30.97;20.63;;;;;;;4.56;73.43;100480.24;1460070;89;22854;-84
2022/02/05 11:39:52;;;;;;;31.80;18.97;;;;;;;4.56;73.43;100480.24;1436698;89;21442;-88
2022/02/05 11:42:34;;;;;;;27.37;18.53;;;;;;;4.61;73.62;100480.77;1455141;89;21378;-94
2022/02/05 11:45:26;;;;;;;30.27;20.47;;;;;;;4.77;72.81;100476.09;1446909;89;22351;-94
2022/02/05 11:47:54;;;;;;;29.57;19.13;;;;;;;4.90;71.47;100478.69;1446527;89;21450;-92
2022/02/05 11:50:25;;;;;;;27.37;17.50;;;;;;;4.94;70.91;100485.38;1447494;89;21309;-88
2022/02/05 11:52:56;;;;;;;30.07;19.37;;;;;;;4.95;70.62;100483.97;1446911;89;22647;-82
2022/02/05 11:55:41;;;;;;;31.73;19.17;;;;;;;4.89;70.38;100488.80;1449629;89;21346;-84
2022/02/05 11:58:10;;;;;;;36.77;17.83;;;;;;;4.94;69.35;100482.76;1447624;89;21538;-81
2022/02/05 12:00:49;;;;;;;30.90;18.63;;;;;;;5.11;68.95;100471.88;1452141;89;21426;-81
2022/02/05 12:03:20;;;;;;;24.77;16.43;;;;;;;5.51;69.02;100470.75;1446241;89;21552;-82
2022/02/05 12:05:55;;;;;;;26.57;18.40;;;;;;;6.12;65.82;100463.52;1433829;89;22622;-82
2022/02/05 12:08:25;;;;;;;20.80;14.57;;;;;;;6.82;66.59;100457.62;1441373;89;22712;-81
2022/02/05 12:10:56;;;;;;;21.83;14.93;;;;;;;7.64;63.95;100453.98;1448540;89;21605;-81
2022/02/05 12:13:39;;;;;;;26.60;15.95;;;;;;;8.55;64.93;100457.69;1374203;89;21332;-80
2022/02/05 12:16:12;;;;;;;19.07;14.63;;;;;;;9.04;61.11;100446.27;1441585;90;21413;-81
2022/02/05 12:19:11;;;;;;;18.33;12.00;;;;;;;9.73;60.16;100447.09;1425061;90;21444;-82
2022/02/05 12:21:59;;;;;;;17.83;12.07;;;;;;;10.41;55.77;100442.11;1419544;91;21609;-82
2022/02/05 12:24:37;;;;;;;18.73;12.50;;;;;;;10.77;55.93;100447.02;1451616;91;21503;-82
2022/02/05 12:27:05;;;;;;;14.83;10.07;;;;;;;10.93;55.66;100443.70;1424195;90;21606;-82
2022/02/05 12:29:33;;;;;;;14.05;10.93;;;;;;;10.63;51.54;100444.37;1410397;92;22616;-83
2022/02/05 12:32:01;;;;;;;15.17;12.57;;;;;;;9.78;52.41;100449.29;1410472;91;21423;-83
2022/02/05 12:34:32;;;;;;;17.27;13.87;;;;;;;10.37;54.47;100439.76;1407389;92;21392;-83
2022/02/05 12:37:00;;;;;;;16.27;11.80;;;;;;;10.74;52.31;100445.50;1412701;92;22383;-82
2022/02/05 12:39:32;;;;;;;13.60;9.40;;;;;;;11.34;53.37;100442.80;1402007;91;22610;-82
2022/02/05 12:42:07;;;;;;;10.00;8.50;;;;;;;11.69;49.20;100445.39;1430211;90;22587;-82
2022/02/05 12:44:37;;;;;;;9.70;8.43;;;;;;;12.14;50.29;100447.53;1418464;90;21413;-82
2022/02/05 12:47:29;;;;;;;12.77;9.83;;;;;;;12.74;49.75;100453.28;1445635;92;21413;-82
2022/02/05 12:50:01;;;;;;;11.30;8.63;;;;;;;13.08;47.11;100452.70;1399032;92;22626;-81
2022/02/05 12:52:32;;;;;;;12.00;10.53;;;;;;;12.93;45.17;100454.34;1357970;91;21554;-83
2022/02/05 12:55:02;;;;;;;10.72;8.88;;;;;;;12.96;42.95;100461.16;1453352;91;21390;-82
2022/02/05 12:57:30;;;;;;;11.17;9.47;;;;;;;12.17;43.00;100462.66;1427806;90;21457;-81
2022/02/05 13:00:10;;;;;;;13.00;9.40;;;;;;;12.62;46.83;100461.53;1489564;91;21428;-83
2022/02/05 13:02:37;;;;;;;12.37;9.30;;;;;;;12.87;45.62;100462.95;1426700;91;22142;-84
2022/02/05 13:05:06;;;;;;;10.60;8.45;;;;;;;13.09;43.61;100461.03;1423685;90;21451;-84
2022/02/05 13:07:42;;;;;;;9.53;7.97;;;;;;;13.32;43.94;100463.06;1410589;91;21629;-84
2022/02/05 13:10:09;;;;;;;12.70;7.62;;;;;;;13.47;41.49;100464.09;1430177;91;21636;-84
2022/02/05 13:12:42;;;;;;;8.38;7.45;;;;;;;13.96;43.43;100468.06;1424249;91;21495;-85
2022/02/05 13:15:23;;;;;;;7.62;6.40;;;;;;;14.27;41.05;100474.47;1410867;91;22486;-84
2022/02/05 13:26:14;;;;;;;;;;;;;;;14.98;38.72;100478.88;1436238;90;21442;-83
2022/02/05 13:34:36;;;;;;;7.78;6.42;;;;;;;14.53;40.57;100479.58;1419789;90;21402;-84
2022/02/05 13:37:25;;;;;;;11.28;8.00;;;;;;;13.23;38.31;100486.61;1402830;91;21347;-84
2022/02/05 13:39:55;;;;;;;8.45;7.25;;;;;;;13.43;40.70;100489.33;1416264;91;21449;-84
2022/02/05 13:42:31;;;;;;;10.05;8.08;;;;;;;13.20;40.87;100494.91;1421392;90;21502;-85
2022/02/05 13:45:09;;;;;;;10.05;7.75;;;;;;;12.85;40.67;100500.80;1424458;90;22070;-84
2022/02/05 13:47:37;;;;;;;13.37;8.30;;;;;;;12.00;41.35;100499.36;1413888;91;21406;-88
2022/02/05 13:50:10;;;;;;;20.50;8.93;;;;;;;11.07;42.98;100509.41;1420361;91;21517;-87
2022/02/05 13:53:03;;;;;;;9.90;7.07;;;;;;;10.51;44.28;100518.33;1419544;91;21547;-89
2022/02/05 13:55:33;;;;;;;9.53;7.03;;;;;;;10.00;45.29;100508.95;1425095;91;22433;-90
2022/02/05 13:58:03;;;;;;;;;;;;;;;9.88;45.50;100516.21;1429495;90;22620;-89
2022/02/05 14:00:48;;;;;;;8.73;6.77;;;;;;;9.83;46.25;100513.98;1485170;86;20310;-89
2022/02/05 14:03:29;;;;;;;10.57;6.70;;;;;;;9.65;46.43;100515.67;1500137;86;22269;-91
2022/02/05 14:06:04;;;;;;;10.13;7.97;;;;;;;9.92;46.35;100513.12;1497171;86;21615;-91